createdAt,value
2022-10-17T00:01:04.980Z,72.00
2022-10-17T00:03:37.913Z,71.90
2022-10-17T00:06:11.192Z,72.00
2022-10-17T00:08:40.961Z,72.20
2022-10-17T00:11:22.918Z,72.20
2022-10-17T00:13:54.361Z,72.20
2022-10-17T00:16:39.902Z,72.40
2022-10-17T00:19:08.072Z,72.70
2022-10-17T00:21:35.386Z,72.90
2022-10-17T00:24:03.009Z,73.00
2022-10-17T00:26:30.287Z,73.10
2022-10-17T00:28:58.096Z,73.40
2022-10-17T00:31:25.871Z,73.50
2022-10-17T00:33:53.762Z,73.90
2022-10-17T00:36:26.661Z,74.50
2022-10-17T00:38:59.755Z,74.10
2022-10-17T00:41:33.980Z,73.90
2022-10-17T00:44:31.479Z,74.10
2022-10-17T00:47:08.891Z,74.30
2022-10-17T00:49:38.573Z,74.80
2022-10-17T00:52:22.264Z,73.90
2022-10-17T00:55:08.959Z,73.60
2022-10-17T00:57:36.743Z,73.90
2022-10-17T01:00:11.165Z,73.80
2022-10-17T01:02:39.445Z,73.70
2022-10-17T01:05:08.990Z,73.80
2022-10-17T01:07:37.960Z,74.10
2022-10-17T01:10:07.992Z,74.00
2022-10-17T01:13:14.063Z,74.20
2022-10-17T01:16:36.114Z,74.00
2022-10-17T01:19:54.784Z,74.20
2022-10-17T01:23:23.837Z,74.50
2022-10-17T01:26:52.685Z,74.80
2022-10-17T01:30:19.557Z,75.20
2022-10-17T01:33:08.600Z,76.00
2022-10-17T01:36:16.685Z,75.10
2022-10-17T01:39:04.500Z,75.10
2022-10-17T01:42:14.034Z,75.20
2022-10-17T01:45:17.269Z,75.10
2022-10-17T01:47:46.778Z,75.30
2022-10-17T01:50:37.896Z,75.20
2022-10-17T01:53:33.905Z,75.40
2022-10-17T01:56:07.405Z,75.30
2022-10-17T01:58:47.426Z,75.20
2022-10-17T02:01:16.464Z,75.90
2022-10-17T02:03:46.002Z,75.30
2022-10-17T02:06:13.269Z,75.20
2022-10-17T02:08:50.597Z,75.30
2022-10-17T02:11:27.113Z,75.60
2022-10-17T02:14:40.875Z,75.60
2022-10-17T02:17:47.010Z,75.80
2022-10-17T02:20:36.344Z,75.70
2022-10-17T02:23:38.395Z,76.00
2022-10-17T02:26:48.763Z,76.20
2022-10-17T02:29:26.909Z,76.20
2022-10-17T02:32:12.587Z,76.10
2022-10-17T02:34:48.225Z,76.50
2022-10-17T02:37:22.148Z,76.40
2022-10-17T02:39:51.848Z,76.30
2022-10-17T02:42:20.732Z,76.50
2022-10-17T02:44:48.977Z,76.60
2022-10-17T02:47:41.770Z,76.70
2022-10-17T02:50:09.913Z,76.70
2022-10-17T02:52:56.278Z,76.90
2022-10-17T02:55:36.398Z,77.10
2022-10-17T02:58:14.873Z,76.90
2022-10-17T03:00:43.188Z,77.20
2022-10-17T03:03:32.295Z,77.10
2022-10-17T03:06:00.416Z,77.30
2022-10-17T03:08:27.915Z,77.10
2022-10-17T03:10:55.224Z,77.00
2022-10-17T03:13:22.485Z,77.10
2022-10-17T03:15:49.759Z,76.80
2022-10-17T03:18:17.070Z,77.00
2022-10-17T03:20:44.339Z,77.00
2022-10-17T03:23:11.627Z,77.20
2022-10-17T03:25:39.731Z,77.20
2022-10-17T03:28:07.875Z,77.20
2022-10-17T03:30:35.140Z,77.20
2022-10-17T03:33:02.455Z,77.30
2022-10-17T03:35:29.726Z,77.70
2022-10-17T03:37:57.602Z,77.80
2022-10-17T03:40:24.959Z,77.80
2022-10-17T03:42:52.253Z,77.80
2022-10-17T03:45:19.531Z,78.00
2022-10-17T03:47:46.810Z,78.00
2022-10-17T03:50:14.122Z,78.10
2022-10-17T03:52:41.490Z,78.90
2022-10-17T03:55:09.019Z,78.20
2022-10-17T03:57:37.058Z,78.20
2022-10-17T04:00:06.692Z,78.00
2022-10-17T04:02:35.236Z,78.00
2022-10-17T04:05:02.731Z,78.10
2022-10-17T04:07:30.017Z,78.10
2022-10-17T04:09:57.299Z,78.40
2022-10-17T04:12:24.568Z,78.30
2022-10-17T04:14:51.833Z,78.30
2022-10-17T04:17:19.185Z,78.50
2022-10-17T04:19:47.320Z,78.40
2022-10-17T04:22:14.569Z,78.70
2022-10-17T04:24:41.824Z,78.60
2022-10-17T04:27:09.885Z,78.50
2022-10-17T04:29:37.128Z,78.40
2022-10-17T04:32:04.752Z,78.40
2022-10-17T04:34:32.017Z,78.50
2022-10-17T04:36:59.291Z,78.80
2022-10-17T04:39:26.655Z,79.00
2022-10-17T04:41:53.944Z,78.70
2022-10-17T04:44:21.204Z,78.80
2022-10-17T04:46:48.680Z,79.00
2022-10-17T04:49:16.031Z,78.80
2022-10-17T04:51:43.281Z,78.70
2022-10-17T04:54:12.356Z,78.70
2022-10-17T04:56:39.620Z,78.70
2022-10-17T04:59:06.892Z,78.80
2022-10-17T05:01:34.160Z,78.70
2022-10-17T05:04:01.460Z,78.90
2022-10-17T05:06:28.789Z,78.70
2022-10-17T05:08:57.628Z,78.90
2022-10-17T05:11:29.991Z,79.00
2022-10-17T05:14:02.644Z,79.10
2022-10-17T05:16:30.894Z,79.10
2022-10-17T05:19:00.002Z,79.20
2022-10-17T05:21:30.272Z,78.90
2022-10-17T05:23:59.233Z,79.10
2022-10-17T05:26:27.121Z,79.30
2022-10-17T05:28:54.787Z,79.30
2022-10-17T05:31:22.213Z,79.40
2022-10-17T05:33:49.482Z,79.40
2022-10-17T05:36:16.820Z,79.40
2022-10-17T05:38:44.083Z,79.40
2022-10-17T05:41:11.386Z,79.30
2022-10-17T05:43:39.490Z,79.60
2022-10-17T05:46:07.345Z,79.50
2022-10-17T05:48:35.398Z,80.10
2022-10-17T05:51:09.583Z,79.80
2022-10-17T05:53:41.472Z,79.60
2022-10-17T05:56:13.381Z,79.70
2022-10-17T05:58:50.203Z,79.50
2022-10-17T06:01:20.007Z,79.70
2022-10-17T06:03:47.411Z,79.50
2022-10-17T06:06:16.501Z,79.50
2022-10-17T06:08:45.813Z,79.70
2022-10-17T06:11:13.775Z,80.00
2022-10-17T06:13:42.329Z,80.30
2022-10-17T06:16:10.065Z,80.50
2022-10-17T06:18:37.485Z,80.50
2022-10-17T06:21:12.154Z,80.70
2022-10-17T06:23:39.431Z,80.80
2022-10-17T06:26:07.700Z,80.60
2022-10-17T06:28:37.093Z,80.80
2022-10-17T06:31:13.683Z,80.90
2022-10-17T06:33:41.166Z,80.60
2022-10-17T06:36:14.155Z,80.80
2022-10-17T06:38:41.733Z,80.60
2022-10-17T06:41:18.552Z,80.50
2022-10-17T06:43:47.842Z,80.40
2022-10-17T06:46:19.204Z,80.40
2022-10-17T06:48:46.728Z,80.20
2022-10-17T06:51:14.120Z,80.20
2022-10-17T06:53:41.414Z,80.10
2022-10-17T06:56:10.755Z,80.00
2022-10-17T06:58:41.578Z,79.90
2022-10-17T07:01:13.632Z,79.80
2022-10-17T07:03:41.672Z,79.80
2022-10-17T07:06:11.313Z,79.70
2022-10-17T07:08:43.544Z,79.70
2022-10-17T07:11:20.943Z,79.50
2022-10-17T07:13:49.041Z,79.50
2022-10-17T07:16:35.420Z,79.50
2022-10-17T07:19:14.521Z,79.20
2022-10-17T07:22:28.295Z,79.00
2022-10-17T07:28:14.853Z,78.80
2022-10-17T07:31:26.075Z,78.80
2022-10-17T07:34:26.559Z,78.80
2022-10-17T07:37:07.077Z,78.80
2022-10-17T07:39:59.711Z,78.20
2022-10-17T07:42:43.313Z,78.30
2022-10-17T07:45:23.177Z,78.20
2022-10-17T07:48:03.841Z,77.80
2022-10-17T07:50:46.560Z,77.60
2022-10-17T07:53:22.558Z,77.40
2022-10-17T07:55:56.496Z,77.60
2022-10-17T07:58:39.551Z,77.40
2022-10-17T08:01:26.294Z,77.40
2022-10-17T08:04:10.037Z,77.10
2022-10-17T08:07:00.634Z,77.00
2022-10-17T08:09:57.443Z,76.40
2022-10-17T08:12:37.715Z,76.70
2022-10-17T08:15:31.900Z,76.50
2022-10-17T08:18:14.232Z,76.20
2022-10-17T08:20:55.634Z,75.60
2022-10-17T08:23:53.756Z,75.60
2022-10-17T08:26:49.589Z,75.80
2022-10-17T08:29:41.550Z,75.30
2022-10-17T08:32:28.859Z,74.50
2022-10-17T08:35:17.714Z,74.60
2022-10-17T08:38:35.101Z,74.10
2022-10-17T08:42:08.647Z,73.80
2022-10-17T08:45:38.393Z,74.10
2022-10-17T08:48:27.065Z,73.10
2022-10-17T08:51:43.025Z,72.50
2022-10-17T08:54:45.811Z,72.90
2022-10-17T08:57:28.639Z,72.50
2022-10-17T09:00:23.219Z,72.30
2022-10-17T09:03:33.787Z,72.10
2022-10-17T09:06:52.575Z,71.20
2022-10-17T09:10:15.293Z,70.70
2022-10-17T09:13:55.980Z,70.50
2022-10-17T09:17:23.541Z,68.80
2022-10-17T09:20:46.287Z,69.30
2022-10-17T09:23:40.429Z,68.00
2022-10-17T09:26:25.739Z,68.20
2022-10-17T09:29:35.350Z,67.70
2022-10-17T09:35:20.637Z,66.00
2022-10-17T09:38:01.786Z,65.80
2022-10-17T09:40:46.101Z,64.50
2022-10-17T09:43:37.743Z,64.50
2022-10-17T09:46:43.217Z,64.60
2022-10-17T09:49:33.134Z,64.10
2022-10-17T09:52:49.541Z,63.00
2022-10-17T09:58:54.037Z,64.00
2022-10-17T10:01:36.215Z,62.60
2022-10-17T10:04:18.004Z,62.60
2022-10-17T10:07:17.827Z,63.20
2022-10-17T10:09:56.549Z,61.80
2022-10-17T10:12:39.536Z,61.70
2022-10-17T10:15:44.158Z,61.00
2022-10-17T10:18:35.759Z,59.70
2022-10-17T10:21:29.559Z,61.10
2022-10-17T10:24:15.721Z,59.80
2022-10-17T10:26:54.324Z,58.70
2022-10-17T10:29:39.855Z,58.20
2022-10-17T10:32:22.839Z,57.80
2022-10-17T10:35:07.471Z,57.70
2022-10-17T10:37:45.696Z,56.80
2022-10-17T10:40:37.376Z,57.30
2022-10-17T10:43:06.550Z,55.50
2022-10-17T10:45:48.039Z,55.30
2022-10-17T10:48:35.707Z,56.00
2022-10-17T10:51:17.391Z,56.40
2022-10-17T10:54:16.145Z,56.00
2022-10-17T10:57:07.797Z,54.70
2022-10-17T10:59:59.183Z,55.30
2022-10-17T11:03:16.361Z,54.10
2022-10-17T11:06:00.566Z,55.10
2022-10-17T11:08:50.409Z,54.70
2022-10-17T11:11:48.042Z,54.40
2022-10-17T11:14:49.624Z,53.50
2022-10-17T11:17:55.223Z,52.90
2022-10-17T11:21:05.995Z,53.80
2022-10-17T11:24:06.860Z,53.90
2022-10-17T11:26:50.634Z,51.90
2022-10-17T11:29:18.848Z,52.40
2022-10-17T11:31:54.857Z,52.40
2022-10-17T11:34:33.465Z,53.30
2022-10-17T11:37:31.833Z,52.90
2022-10-17T11:40:38.971Z,52.30
2022-10-17T11:43:28.079Z,52.80
2022-10-17T11:46:20.019Z,52.10
2022-10-17T11:49:20.611Z,52.50
2022-10-17T11:52:55.813Z,51.80
2022-10-17T11:55:29.772Z,51.30
2022-10-17T11:58:31.727Z,51.10
2022-10-17T12:01:54.780Z,51.20
2022-10-17T12:05:12.689Z,50.90
2022-10-17T12:08:14.216Z,49.90
2022-10-17T12:11:38.677Z,49.40
2022-10-17T12:14:48.503Z,48.80
2022-10-17T12:17:40.747Z,47.90
2022-10-17T12:20:26.140Z,47.00
2022-10-17T12:23:12.475Z,45.30
2022-10-17T12:26:06.435Z,45.40
2022-10-17T12:28:48.129Z,45.90
2022-10-17T12:31:29.652Z,43.50
2022-10-17T12:34:03.959Z,44.30
2022-10-17T12:36:31.029Z,43.70
2022-10-17T12:39:04.337Z,44.20
2022-10-17T12:41:40.603Z,42.60
2022-10-17T12:44:14.082Z,43.20
2022-10-17T12:47:10.812Z,43.10
2022-10-17T12:49:56.860Z,44.60
2022-10-17T12:52:35.039Z,44.70
2022-10-17T12:55:14.931Z,43.80
2022-10-17T12:58:08.335Z,44.30
2022-10-17T13:01:18.992Z,43.90
2022-10-17T13:03:52.441Z,44.70
2022-10-17T13:06:31.154Z,44.70
2022-10-17T13:09:38.770Z,44.90
2022-10-17T13:12:20.056Z,44.50
2022-10-17T13:14:50.211Z,44.40
2022-10-17T13:17:30.783Z,44.80
2022-10-17T13:19:58.985Z,44.80
2022-10-17T13:22:32.768Z,44.30
2022-10-17T13:25:30.059Z,43.60
2022-10-17T13:28:13.663Z,42.60
2022-10-17T13:30:49.611Z,44.30
2022-10-17T13:33:36.338Z,43.80
2022-10-17T13:36:13.720Z,43.90
2022-10-17T13:38:42.699Z,43.10
2022-10-17T13:41:34.862Z,43.30
2022-10-17T13:44:15.469Z,42.80
2022-10-17T13:46:44.683Z,44.20
2022-10-17T13:49:42.246Z,43.20
2022-10-17T13:52:23.452Z,45.20
2022-10-17T13:54:53.695Z,43.50
2022-10-17T13:57:31.878Z,44.60
2022-10-17T14:00:23.153Z,44.80
2022-10-17T14:02:50.618Z,44.20
2022-10-17T14:05:23.353Z,44.40
2022-10-17T14:08:21.687Z,46.40
2022-10-17T14:10:49.192Z,45.40
2022-10-17T14:13:33.740Z,46.00
2022-10-17T14:16:04.557Z,45.40
2022-10-17T14:18:36.948Z,47.30
2022-10-17T14:24:35.126Z,45.00
2022-10-17T14:27:02.665Z,46.30
2022-10-17T14:29:51.786Z,46.70
2022-10-17T14:32:21.098Z,47.10
2022-10-17T14:35:05.632Z,48.10
2022-10-17T14:37:49.740Z,44.80
2022-10-17T14:40:27.320Z,46.10
2022-10-17T14:43:00.123Z,45.90
2022-10-17T14:45:39.931Z,48.70
2022-10-17T14:48:19.732Z,49.70
2022-10-17T14:51:18.633Z,49.30
2022-10-17T14:54:29.761Z,49.50
2022-10-17T14:56:57.049Z,48.00
2022-10-17T14:59:52.306Z,48.60
2022-10-17T15:02:14.154Z,49.30
2022-10-17T15:04:42.269Z,48.70
2022-10-17T15:07:18.026Z,49.10
2022-10-17T15:09:52.654Z,47.90
2022-10-17T15:12:26.125Z,48.60
2022-10-17T15:14:54.382Z,48.60
2022-10-17T15:17:32.345Z,47.70
2022-10-17T15:20:00.255Z,47.60
2022-10-17T15:22:27.882Z,48.10
2022-10-17T15:24:55.506Z,47.80
2022-10-17T15:27:26.467Z,47.00
2022-10-17T15:29:53.743Z,48.00
2022-10-17T15:32:21.026Z,48.60
2022-10-17T15:34:48.307Z,47.50
2022-10-17T15:37:26.284Z,48.80
2022-10-17T15:39:55.579Z,47.30
2022-10-17T15:42:29.832Z,47.70
2022-10-17T15:44:58.432Z,47.80
2022-10-17T15:47:34.004Z,46.70
2022-10-17T15:50:02.552Z,49.00
2022-10-17T15:52:29.855Z,49.70
2022-10-17T15:55:04.160Z,48.70
2022-10-17T15:57:40.411Z,47.50
2022-10-17T16:00:25.160Z,49.10
2022-10-17T16:02:52.489Z,48.70
2022-10-17T16:05:26.912Z,49.40
2022-10-17T16:07:55.786Z,47.80
2022-10-17T16:10:23.785Z,50.00
2022-10-17T16:12:53.040Z,49.00
2022-10-17T16:15:27.888Z,49.00
2022-10-17T16:18:00.455Z,48.50
2022-10-17T16:20:30.375Z,48.40
2022-10-17T16:23:00.532Z,49.80
2022-10-17T16:25:31.854Z,48.40
2022-10-17T16:28:00.810Z,48.70
2022-10-17T16:30:31.838Z,49.40
2022-10-17T16:32:59.350Z,49.30
2022-10-17T16:35:34.761Z,49.30
2022-10-17T16:38:07.856Z,49.80
2022-10-17T16:40:37.794Z,50.00
2022-10-17T16:43:05.382Z,50.60
2022-10-17T16:45:32.763Z,51.40
2022-10-17T16:48:00.081Z,50.90
2022-10-17T16:50:27.451Z,51.30
2022-10-17T16:52:54.709Z,51.90
2022-10-17T16:55:22.013Z,51.40
2022-10-17T16:57:49.533Z,52.30
2022-10-17T17:00:18.005Z,52.40
2022-10-17T17:02:48.192Z,52.90
2022-10-17T17:05:16.102Z,53.40
2022-10-17T17:07:43.508Z,53.90
2022-10-17T17:10:10.861Z,54.00
2022-10-17T17:12:38.191Z,54.10
2022-10-17T17:15:09.623Z,54.80
2022-10-17T17:17:49.654Z,55.70
2022-10-17T17:20:18.632Z,56.20
2022-10-17T17:22:45.901Z,56.70
2022-10-17T17:25:13.219Z,57.50
2022-10-17T17:27:40.472Z,57.70
2022-10-17T17:30:08.735Z,57.80
2022-10-17T17:32:36.032Z,57.40
2022-10-17T17:35:03.417Z,57.60
2022-10-17T17:37:31.030Z,58.00
2022-10-17T17:39:58.453Z,58.40
2022-10-17T17:42:25.719Z,58.40
2022-10-17T17:44:52.993Z,59.00
2022-10-17T17:47:20.415Z,59.10
2022-10-17T17:49:47.709Z,58.60
2022-10-17T17:52:14.984Z,59.10
2022-10-17T17:54:42.232Z,59.30
2022-10-17T17:57:09.510Z,59.90
2022-10-17T17:59:39.574Z,60.00
2022-10-17T18:02:08.766Z,60.50
2022-10-17T18:04:36.087Z,60.70
2022-10-17T18:07:03.365Z,61.20
2022-10-17T18:09:30.624Z,61.30
2022-10-17T18:11:57.883Z,61.60
2022-10-17T18:14:25.575Z,61.30
2022-10-17T18:16:53.871Z,61.50
2022-10-17T18:19:22.265Z,61.50
2022-10-17T18:21:49.648Z,61.70
2022-10-17T18:24:16.997Z,61.70
2022-10-17T18:26:44.253Z,61.60
2022-10-17T18:29:12.787Z,61.40
2022-10-17T18:31:40.085Z,61.30
2022-10-17T18:34:07.351Z,61.30
2022-10-17T18:36:37.158Z,61.50
2022-10-17T18:39:05.683Z,61.40
2022-10-17T18:41:33.856Z,61.30
2022-10-17T18:44:03.061Z,61.40
2022-10-17T18:46:40.058Z,61.70
2022-10-17T18:49:16.562Z,61.80
2022-10-17T18:51:43.812Z,61.90
2022-10-17T18:54:24.525Z,62.00
2022-10-17T18:56:55.295Z,61.90
2022-10-17T18:59:22.835Z,62.30
2022-10-17T19:01:51.696Z,62.70
2022-10-17T19:04:19.135Z,62.90
2022-10-17T19:06:46.445Z,63.00
2022-10-17T19:09:17.112Z,63.30
2022-10-17T19:11:44.412Z,63.90
2022-10-17T19:14:13.745Z,64.20
2022-10-17T19:16:50.869Z,64.30
2022-10-17T19:19:26.021Z,64.80
2022-10-17T19:21:54.118Z,65.00
2022-10-17T19:24:26.140Z,64.90
2022-10-17T19:26:57.897Z,64.70
2022-10-17T19:29:28.795Z,65.20
2022-10-17T19:34:43.695Z,65.70
2022-10-17T19:37:10.973Z,65.90
2022-10-17T19:39:38.520Z,66.00
2022-10-17T19:42:06.955Z,66.40
2022-10-17T19:44:35.497Z,66.50
2022-10-17T19:47:02.761Z,66.50
2022-10-17T19:49:30.097Z,66.60
2022-10-17T19:51:57.419Z,66.80
2022-10-17T19:54:24.671Z,66.50
2022-10-17T19:56:51.939Z,66.80
2022-10-17T19:59:19.531Z,66.90
2022-10-17T20:01:47.093Z,66.80
2022-10-17T20:04:16.180Z,67.10
2022-10-17T20:06:43.640Z,67.10
2022-10-17T20:09:15.826Z,67.30
2022-10-17T20:11:45.094Z,67.20
2022-10-17T20:14:15.445Z,67.30
2022-10-17T20:16:44.792Z,67.70
2022-10-17T20:19:16.336Z,67.80
2022-10-17T20:21:44.420Z,68.20
2022-10-17T20:24:16.487Z,68.00
2022-10-17T20:26:44.983Z,68.20
2022-10-17T20:29:21.238Z,68.30
2022-10-17T20:31:49.513Z,68.30
2022-10-17T20:34:19.692Z,68.50
2022-10-17T20:36:48.625Z,69.00
2022-10-17T20:39:20.012Z,68.70
2022-10-17T20:41:47.721Z,68.50
2022-10-17T20:44:15.267Z,69.10
2022-10-17T20:46:48.687Z,68.90
2022-10-17T20:49:25.408Z,68.70
2022-10-17T20:51:52.697Z,68.90
2022-10-17T20:54:22.197Z,69.10
2022-10-17T20:56:49.515Z,69.30
2022-10-17T20:59:18.178Z,69.40
2022-10-17T21:01:46.929Z,69.50
2022-10-17T21:04:44.768Z,70.00
2022-10-17T21:07:02.298Z,70.20
2022-10-17T21:09:29.616Z,70.40
2022-10-17T21:11:57.362Z,70.60
2022-10-17T21:14:25.815Z,70.70
2022-10-17T21:16:53.543Z,70.80
2022-10-17T21:19:21.863Z,70.80
2022-10-17T21:21:50.549Z,71.10
2022-10-17T21:24:20.474Z,71.70
2022-10-17T21:26:55.201Z,71.40
2022-10-17T21:29:24.154Z,71.70
2022-10-17T21:31:52.685Z,71.40
2022-10-17T21:34:27.242Z,71.70
2022-10-17T21:36:54.569Z,71.70
2022-10-17T21:39:24.727Z,71.90
2022-10-17T21:41:54.443Z,71.70
2022-10-17T21:44:27.381Z,71.70
2022-10-17T21:46:56.052Z,72.00
2022-10-17T21:49:25.762Z,71.90
2022-10-17T21:51:54.075Z,72.00
2022-10-17T21:54:23.570Z,71.90
2022-10-17T21:56:52.050Z,72.70
2022-10-17T21:59:19.337Z,72.10
2022-10-17T22:01:46.900Z,72.30
2022-10-17T22:04:18.847Z,72.70
2022-10-17T22:06:51.892Z,72.80
2022-10-17T22:09:25.765Z,72.70
2022-10-17T22:11:56.803Z,73.20
2022-10-17T22:14:27.911Z,73.30
2022-10-17T22:16:55.729Z,73.70
2022-10-17T22:19:27.737Z,73.80
2022-10-17T22:21:57.092Z,73.90
2022-10-17T22:24:24.440Z,74.00
2022-10-17T22:26:51.991Z,74.00
2022-10-17T22:29:19.559Z,74.30
2022-10-17T22:31:47.145Z,74.50
2022-10-17T22:34:17.662Z,74.30
2022-10-17T22:36:47.645Z,74.30
2022-10-17T22:39:15.053Z,74.30
2022-10-17T22:41:42.327Z,74.40
2022-10-17T22:44:09.806Z,74.20
2022-10-17T22:46:37.297Z,74.10
2022-10-17T22:49:04.698Z,74.00
2022-10-17T22:51:32.908Z,73.80
2022-10-17T22:54:00.161Z,73.90
2022-10-17T22:56:27.573Z,73.80
2022-10-17T22:58:54.889Z,74.20
2022-10-17T23:01:25.478Z,74.00
2022-10-17T23:03:53.978Z,74.20
2022-10-17T23:06:23.801Z,73.40
2022-10-17T23:08:51.189Z,73.50
2022-10-17T23:11:18.843Z,73.20
2022-10-17T23:13:46.139Z,73.30
2022-10-17T23:16:13.523Z,73.40
2022-10-17T23:18:40.948Z,73.60
2022-10-17T23:21:08.724Z,73.80
2022-10-17T23:23:37.024Z,73.90
2022-10-17T23:26:14.944Z,74.00
2022-10-17T23:28:43.514Z,74.30
2022-10-17T23:31:19.826Z,74.40
2022-10-17T23:33:49.781Z,74.30
2022-10-17T23:36:20.767Z,74.40
2022-10-17T23:38:49.131Z,74.80
2022-10-17T23:41:17.159Z,74.60
2022-10-17T23:43:45.016Z,74.60
2022-10-17T23:46:12.613Z,74.50
2022-10-17T23:48:40.810Z,74.50
2022-10-17T23:51:10.384Z,74.40
2022-10-17T23:53:39.714Z,74.40
2022-10-17T23:56:09.385Z,74.50
2022-10-17T23:58:38.726Z,74.60
